sensor_id;sensor_type;location;lat;lon;timestamp;P1;durP1;ratioP1;P2;durP2;ratioP2
78799;SDS011;68148;55.328;86.106;2023-04-25T00:01:12;3.53;;;1.38;;
78799;SDS011;68148;55.328;86.106;2023-04-25T00:03:38;10.95;;;2.78;;
78799;SDS011;68148;55.328;86.106;2023-04-25T00:06:04;12.52;;;4.25;;
78799;SDS011;68148;55.328;86.106;2023-04-25T00:08:31;7.00;;;2.60;;
78799;SDS011;68148;55.328;86.106;2023-04-25T00:10:57;6.18;;;2.65;;
78799;SDS011;68148;55.328;86.106;2023-04-25T00:13:23;3.33;;;1.33;;
78799;SDS011;68148;55.328;86.106;2023-04-25T00:15:49;2.95;;;1.10;;
78799;SDS011;68148;55.328;86.106;2023-04-25T00:18:15;3.58;;;1.20;;
78799;SDS011;68148;55.328;86.106;2023-04-25T00:20:41;3.95;;;1.70;;
78799;SDS011;68148;55.328;86.106;2023-04-25T00:23:07;3.33;;;1.55;;
78799;SDS011;68148;55.328;86.106;2023-04-25T00:25:33;2.25;;;1.10;;
78799;SDS011;68148;55.328;86.106;2023-04-25T00:27:59;4.35;;;0.77;;
78799;SDS011;68148;55.328;86.106;2023-04-25T00:30:25;3.83;;;1.00;;
78799;SDS011;68148;55.328;86.106;2023-04-25T00:32:51;1.75;;;0.80;;
78799;SDS011;68148;55.328;86.106;2023-04-25T00:35:17;0.40;;;0.30;;
78799;SDS011;68148;55.328;86.106;2023-04-25T00:37:43;1.30;;;0.50;;
78799;SDS011;68148;55.328;86.106;2023-04-25T00:40:09;2.00;;;0.60;;
78799;SDS011;68148;55.328;86.106;2023-04-25T00:42:35;1.77;;;0.68;;
78799;SDS011;68148;55.328;86.106;2023-04-25T00:45:04;2.30;;;1.23;;
78799;SDS011;68148;55.328;86.106;2023-04-25T00:49:58;8.25;;;1.92;;
78799;SDS011;68148;55.328;86.106;2023-04-25T00:52:25;4.15;;;1.45;;
78799;SDS011;68148;55.328;86.106;2023-04-25T00:54:51;4.05;;;0.90;;
78799;SDS011;68148;55.328;86.106;2023-04-25T00:57:21;3.15;;;0.52;;
78799;SDS011;68148;55.328;86.106;2023-04-25T00:59:47;2.72;;;1.17;;
78799;SDS011;68148;55.328;86.106;2023-04-25T01:02:16;3.20;;;0.85;;
78799;SDS011;68148;55.328;86.106;2023-04-25T01:04:43;3.15;;;0.60;;
78799;SDS011;68148;55.328;86.106;2023-04-25T01:07:10;1.55;;;1.20;;
78799;SDS011;68148;55.328;86.106;2023-04-25T01:09:36;8.80;;;1.17;;
78799;SDS011;68148;55.328;86.106;2023-04-25T01:12:02;5.57;;;1.30;;
78799;SDS011;68148;55.328;86.106;2023-04-25T01:14:28;1.30;;;0.40;;
78799;SDS011;68148;55.328;86.106;2023-04-25T01:16:54;1.67;;;0.55;;
78799;SDS011;68148;55.328;86.106;2023-04-25T01:19:20;3.53;;;0.85;;
78799;SDS011;68148;55.328;86.106;2023-04-25T01:21:46;1.90;;;0.35;;
78799;SDS011;68148;55.328;86.106;2023-04-25T01:24:12;2.88;;;1.20;;
78799;SDS011;68148;55.328;86.106;2023-04-25T01:26:39;1.98;;;0.40;;
78799;SDS011;68148;55.328;86.106;2023-04-25T01:29:07;0.50;;;0.32;;
78799;SDS011;68148;55.328;86.106;2023-04-25T01:31:33;1.27;;;0.25;;
78799;SDS011;68148;55.328;86.106;2023-04-25T01:34:00;4.50;;;2.15;;
78799;SDS011;68148;55.328;86.106;2023-04-25T01:36:26;2.03;;;0.60;;
78799;SDS011;68148;55.328;86.106;2023-04-25T01:38:53;5.50;;;1.42;;
78799;SDS011;68148;55.328;86.106;2023-04-25T01:41:19;6.50;;;1.25;;
78799;SDS011;68148;55.328;86.106;2023-04-25T01:43:45;5.45;;;1.00;;
78799;SDS011;68148;55.328;86.106;2023-04-25T01:46:11;6.43;;;1.85;;
78799;SDS011;68148;55.328;86.106;2023-04-25T01:48:37;7.15;;;0.85;;
78799;SDS011;68148;55.328;86.106;2023-04-25T01:51:03;2.55;;;0.70;;
78799;SDS011;68148;55.328;86.106;2023-04-25T01:53:29;8.43;;;2.08;;
78799;SDS011;68148;55.328;86.106;2023-04-25T01:55:55;1.10;;;0.50;;
78799;SDS011;68148;55.328;86.106;2023-04-25T01:58:21;2.50;;;1.30;;
78799;SDS011;68148;55.328;86.106;2023-04-25T02:00:47;0.95;;;0.70;;
78799;SDS011;68148;55.328;86.106;2023-04-25T02:03:13;11.02;;;2.03;;
78799;SDS011;68148;55.328;86.106;2023-04-25T02:05:39;3.50;;;0.93;;
78799;SDS011;68148;55.328;86.106;2023-04-25T02:08:05;2.85;;;1.15;;
78799;SDS011;68148;55.328;86.106;2023-04-25T02:10:33;2.08;;;1.42;;
78799;SDS011;68148;55.328;86.106;2023-04-25T02:12:59;0.70;;;0.57;;
78799;SDS011;68148;55.328;86.106;2023-04-25T02:15:25;4.13;;;1.27;;
78799;SDS011;68148;55.328;86.106;2023-04-25T02:17:51;2.55;;;1.00;;
78799;SDS011;68148;55.328;86.106;2023-04-25T02:20:18;2.35;;;0.88;;
78799;SDS011;68148;55.328;86.106;2023-04-25T02:22:47;14.52;;;1.23;;
78799;SDS011;68148;55.328;86.106;2023-04-25T02:25:13;5.78;;;1.85;;
78799;SDS011;68148;55.328;86.106;2023-04-25T02:27:39;5.60;;;1.20;;
78799;SDS011;68148;55.328;86.106;2023-04-25T02:30:05;2.58;;;1.30;;
78799;SDS011;68148;55.328;86.106;2023-04-25T02:32:32;2.15;;;1.30;;
78799;SDS011;68148;55.328;86.106;2023-04-25T02:34:58;2.38;;;0.95;;
78799;SDS011;68148;55.328;86.106;2023-04-25T02:37:24;2.03;;;0.55;;
78799;SDS011;68148;55.328;86.106;2023-04-25T02:39:50;3.13;;;1.17;;
78799;SDS011;68148;55.328;86.106;2023-04-25T02:42:16;2.45;;;1.20;;
78799;SDS011;68148;55.328;86.106;2023-04-25T02:44:42;4.82;;;1.77;;
78799;SDS011;68148;55.328;86.106;2023-04-25T02:47:08;4.90;;;1.83;;
78799;SDS011;68148;55.328;86.106;2023-04-25T02:49:33;5.30;;;2.15;;
78799;SDS011;68148;55.328;86.106;2023-04-25T02:51:59;9.88;;;2.30;;
78799;SDS011;68148;55.328;86.106;2023-04-25T02:54:25;2.72;;;1.73;;
78799;SDS011;68148;55.328;86.106;2023-04-25T02:56:51;1.88;;;1.20;;
78799;SDS011;68148;55.328;86.106;2023-04-25T02:59:17;11.82;;;2.00;;
78799;SDS011;68148;55.328;86.106;2023-04-25T03:01:43;3.20;;;1.88;;
78799;SDS011;68148;55.328;86.106;2023-04-25T03:04:09;1.60;;;0.47;;
78799;SDS011;68148;55.328;86.106;2023-04-25T03:06:35;7.07;;;1.60;;
78799;SDS011;68148;55.328;86.106;2023-04-25T03:09:01;1.38;;;0.85;;
78799;SDS011;68148;55.328;86.106;2023-04-25T03:11:27;2.97;;;0.82;;
78799;SDS011;68148;55.328;86.106;2023-04-25T03:13:53;1.10;;;0.75;;
78799;SDS011;68148;55.328;86.106;2023-04-25T03:16:19;1.77;;;0.52;;
78799;SDS011;68148;55.328;86.106;2023-04-25T03:18:45;5.60;;;0.50;;
78799;SDS011;68148;55.328;86.106;2023-04-25T03:21:10;3.53;;;0.45;;
78799;SDS011;68148;55.328;86.106;2023-04-25T03:23:36;0.68;;;0.45;;
78799;SDS011;68148;55.328;86.106;2023-04-25T03:26:02;4.90;;;0.93;;
78799;SDS011;68148;55.328;86.106;2023-04-25T03:28:28;3.30;;;0.75;;
78799;SDS011;68148;55.328;86.106;2023-04-25T03:30:54;3.47;;;0.82;;
78799;SDS011;68148;55.328;86.106;2023-04-25T03:33:20;5.38;;;1.25;;
78799;SDS011;68148;55.328;86.106;2023-04-25T03:35:47;2.78;;;1.40;;
78799;SDS011;68148;55.328;86.106;2023-04-25T03:38:13;1.67;;;0.80;;
78799;SDS011;68148;55.328;86.106;2023-04-25T03:40:38;3.28;;;1.35;;
78799;SDS011;68148;55.328;86.106;2023-04-25T03:43:04;6.15;;;1.60;;
78799;SDS011;68148;55.328;86.106;2023-04-25T03:45:30;9.52;;;2.88;;
78799;SDS011;68148;55.328;86.106;2023-04-25T03:47:57;6.80;;;1.27;;
78799;SDS011;68148;55.328;86.106;2023-04-25T03:50:23;0.95;;;0.30;;
78799;SDS011;68148;55.328;86.106;2023-04-25T03:52:49;3.85;;;1.73;;
78799;SDS011;68148;55.328;86.106;2023-04-25T03:55:15;0.80;;;0.60;;
78799;SDS011;68148;55.328;86.106;2023-04-25T03:57:41;10.77;;;2.78;;
78799;SDS011;68148;55.328;86.106;2023-04-25T04:00:07;7.30;;;0.90;;
78799;SDS011;68148;55.328;86.106;2023-04-25T04:02:33;1.52;;;0.63;;
78799;SDS011;68148;55.328;86.106;2023-04-25T04:04:59;5.22;;;1.65;;
78799;SDS011;68148;55.328;86.106;2023-04-25T04:07:25;5.30;;;1.63;;
78799;SDS011;68148;55.328;86.106;2023-04-25T04:09:51;2.47;;;0.70;;
78799;SDS011;68148;55.328;86.106;2023-04-25T04:12:17;1.17;;;0.68;;
78799;SDS011;68148;55.328;86.106;2023-04-25T04:14:43;0.47;;;0.32;;
78799;SDS011;68148;55.328;86.106;2023-04-25T04:17:08;2.17;;;0.88;;
78799;SDS011;68148;55.328;86.106;2023-04-25T04:19:34;2.85;;;1.17;;
78799;SDS011;68148;55.328;86.106;2023-04-25T04:22:00;4.07;;;1.33;;
78799;SDS011;68148;55.328;86.106;2023-04-25T04:24:26;5.03;;;1.80;;
78799;SDS011;68148;55.328;86.106;2023-04-25T04:26:51;3.22;;;0.85;;
78799;SDS011;68148;55.328;86.106;2023-04-25T04:29:17;1.88;;;0.65;;
78799;SDS011;68148;55.328;86.106;2023-04-25T04:31:43;1.25;;;0.80;;
78799;SDS011;68148;55.328;86.106;2023-04-25T04:34:09;1.85;;;1.10;;
78799;SDS011;68148;55.328;86.106;2023-04-25T04:36:34;3.85;;;1.33;;
78799;SDS011;68148;55.328;86.106;2023-04-25T04:39:00;2.22;;;0.77;;
78799;SDS011;68148;55.328;86.106;2023-04-25T04:41:27;15.18;;;1.75;;
78799;SDS011;68148;55.328;86.106;2023-04-25T04:43:53;2.85;;;1.00;;
78799;SDS011;68148;55.328;86.106;2023-04-25T04:46:18;1.85;;;0.70;;
78799;SDS011;68148;55.328;86.106;2023-04-25T04:48:44;5.60;;;1.20;;
78799;SDS011;68148;55.328;86.106;2023-04-25T04:51:10;3.72;;;1.20;;
78799;SDS011;68148;55.328;86.106;2023-04-25T04:53:36;4.47;;;0.93;;
78799;SDS011;68148;55.328;86.106;2023-04-25T04:56:01;1.58;;;0.52;;
78799;SDS011;68148;55.328;86.106;2023-04-25T04:58:27;0.70;;;0.50;;
78799;SDS011;68148;55.328;86.106;2023-04-25T05:00:53;1.30;;;0.80;;
78799;SDS011;68148;55.328;86.106;2023-04-25T05:03:19;1.02;;;0.43;;
78799;SDS011;68148;55.328;86.106;2023-04-25T05:05:44;1.42;;;0.70;;
78799;SDS011;68148;55.328;86.106;2023-04-25T05:08:10;8.88;;;1.40;;
78799;SDS011;68148;55.328;86.106;2023-04-25T05:10:36;3.10;;;0.80;;
78799;SDS011;68148;55.328;86.106;2023-04-25T05:13:02;3.53;;;1.35;;
78799;SDS011;68148;55.328;86.106;2023-04-25T05:15:28;5.32;;;1.10;;
78799;SDS011;68148;55.328;86.106;2023-04-25T05:17:54;8.20;;;0.90;;
78799;SDS011;68148;55.328;86.106;2023-04-25T05:20:19;1.95;;;0.90;;
78799;SDS011;68148;55.328;86.106;2023-04-25T05:22:45;0.52;;;0.40;;
78799;SDS011;68148;55.328;86.106;2023-04-25T05:25:11;3.42;;;0.60;;
78799;SDS011;68148;55.328;86.106;2023-04-25T05:27:37;3.47;;;0.98;;
78799;SDS011;68148;55.328;86.106;2023-04-25T05:30:03;8.13;;;1.00;;
78799;SDS011;68148;55.328;86.106;2023-04-25T05:32:30;3.63;;;1.00;;
78799;SDS011;68148;55.328;86.106;2023-04-25T05:34:55;13.70;;;0.88;;
78799;SDS011;68148;55.328;86.106;2023-04-25T05:37:21;0.95;;;0.30;;
78799;SDS011;68148;55.328;86.106;2023-04-25T05:39:47;3.08;;;1.00;;
78799;SDS011;68148;55.328;86.106;2023-04-25T05:42:13;2.65;;;0.68;;
78799;SDS011;68148;55.328;86.106;2023-04-25T05:44:39;4.07;;;0.85;;
78799;SDS011;68148;55.328;86.106;2023-04-25T05:47:04;2.00;;;1.63;;
78799;SDS011;68148;55.328;86.106;2023-04-25T05:49:30;3.47;;;1.30;;
78799;SDS011;68148;55.328;86.106;2023-04-25T05:51:56;5.45;;;2.78;;
78799;SDS011;68148;55.328;86.106;2023-04-25T05:54:22;4.90;;;1.35;;
78799;SDS011;68148;55.328;86.106;2023-04-25T05:56:47;2.50;;;0.80;;
78799;SDS011;68148;55.328;86.106;2023-04-25T05:59:14;1.40;;;0.60;;
78799;SDS011;68148;55.328;86.106;2023-04-25T06:01:39;1.02;;;0.70;;
78799;SDS011;68148;55.328;86.106;2023-04-25T06:04:05;4.90;;;1.00;;
78799;SDS011;68148;55.328;86.106;2023-04-25T06:06:31;3.00;;;1.27;;
78799;SDS011;68148;55.328;86.106;2023-04-25T06:08:57;5.10;;;0.80;;
78799;SDS011;68148;55.328;86.106;2023-04-25T06:11:22;1.35;;;0.82;;
78799;SDS011;68148;55.328;86.106;2023-04-25T06:13:48;1.35;;;0.70;;
78799;SDS011;68148;55.328;86.106;2023-04-25T06:16:14;0.82;;;0.55;;
78799;SDS011;68148;55.328;86.106;2023-04-25T06:18:40;3.05;;;0.68;;
78799;SDS011;68148;55.328;86.106;2023-04-25T06:21:05;4.50;;;1.85;;
78799;SDS011;68148;55.328;86.106;2023-04-25T06:23:31;3.47;;;1.30;;
78799;SDS011;68148;55.328;86.106;2023-04-25T06:25:57;3.20;;;1.33;;
78799;SDS011;68148;55.328;86.106;2023-04-25T06:28:23;2.17;;;1.08;;
78799;SDS011;68148;55.328;86.106;2023-04-25T06:30:48;3.25;;;0.90;;
78799;SDS011;68148;55.328;86.106;2023-04-25T06:33:14;11.45;;;2.33;;
78799;SDS011;68148;55.328;86.106;2023-04-25T06:35:40;6.50;;;1.85;;
78799;SDS011;68148;55.328;86.106;2023-04-25T06:38:06;5.50;;;2.33;;
78799;SDS011;68148;55.328;86.106;2023-04-25T06:40:32;8.23;;;3.00;;
78799;SDS011;68148;55.328;86.106;2023-04-25T06:42:58;7.95;;;2.53;;
78799;SDS011;68148;55.328;86.106;2023-04-25T06:45:23;4.50;;;2.47;;
78799;SDS011;68148;55.328;86.106;2023-04-25T06:47:49;4.18;;;0.95;;
78799;SDS011;68148;55.328;86.106;2023-04-25T06:50:15;6.28;;;1.83;;
78799;SDS011;68148;55.328;86.106;2023-04-25T06:52:40;2.25;;;0.60;;
78799;SDS011;68148;55.328;86.106;2023-04-25T06:55:06;10.73;;;1.45;;
78799;SDS011;68148;55.328;86.106;2023-04-25T06:57:33;7.32;;;1.38;;
78799;SDS011;68148;55.328;86.106;2023-04-25T06:59:59;2.65;;;0.93;;
78799;SDS011;68148;55.328;86.106;2023-04-25T07:02:25;1.83;;;1.13;;
78799;SDS011;68148;55.328;86.106;2023-04-25T07:04:51;3.72;;;1.38;;
78799;SDS011;68148;55.328;86.106;2023-04-25T07:07:17;6.80;;;1.77;;
78799;SDS011;68148;55.328;86.106;2023-04-25T07:09:42;1.10;;;0.57;;
78799;SDS011;68148;55.328;86.106;2023-04-25T07:12:09;1.35;;;0.50;;
78799;SDS011;68148;55.328;86.106;2023-04-25T07:14:35;2.67;;;1.30;;
78799;SDS011;68148;55.328;86.106;2023-04-25T07:17:00;2.10;;;1.17;;
78799;SDS011;68148;55.328;86.106;2023-04-25T07:19:26;1.10;;;0.70;;
78799;SDS011;68148;55.328;86.106;2023-04-25T07:21:52;2.45;;;0.55;;
78799;SDS011;68148;55.328;86.106;2023-04-25T07:24:18;5.55;;;0.75;;
78799;SDS011;68148;55.328;86.106;2023-04-25T07:26:44;5.25;;;1.33;;
78799;SDS011;68148;55.328;86.106;2023-04-25T07:29:10;2.67;;;1.52;;
78799;SDS011;68148;55.328;86.106;2023-04-25T07:31:36;3.40;;;1.10;;
78799;SDS011;68148;55.328;86.106;2023-04-25T07:34:02;10.43;;;0.82;;
78799;SDS011;68148;55.328;86.106;2023-04-25T07:36:27;1.40;;;0.55;;
78799;SDS011;68148;55.328;86.106;2023-04-25T07:38:53;2.17;;;1.20;;
78799;SDS011;68148;55.328;86.106;2023-04-25T07:41:19;2.65;;;1.25;;
78799;SDS011;68148;55.328;86.106;2023-04-25T07:43:45;7.55;;;1.85;;
78799;SDS011;68148;55.328;86.106;2023-04-25T07:46:10;10.73;;;3.03;;
78799;SDS011;68148;55.328;86.106;2023-04-25T07:48:36;3.92;;;1.83;;
78799;SDS011;68148;55.328;86.106;2023-04-25T07:51:02;0.80;;;0.80;;
78799;SDS011;68148;55.328;86.106;2023-04-25T07:53:28;8.68;;;2.97;;
78799;SDS011;68148;55.328;86.106;2023-04-25T07:55:53;5.47;;;2.10;;
78799;SDS011;68148;55.328;86.106;2023-04-25T07:58:19;3.95;;;0.75;;
78799;SDS011;68148;55.328;86.106;2023-04-25T08:00:45;5.30;;;1.65;;
78799;SDS011;68148;55.328;86.106;2023-04-25T08:03:11;11.50;;;3.25;;
78799;SDS011;68148;55.328;86.106;2023-04-25T08:05:36;4.60;;;0.85;;
78799;SDS011;68148;55.328;86.106;2023-04-25T08:08:02;3.92;;;1.05;;
78799;SDS011;68148;55.328;86.106;2023-04-25T08:10:28;4.85;;;2.00;;
78799;SDS011;68148;55.328;86.106;2023-04-25T08:12:54;4.18;;;1.00;;
78799;SDS011;68148;55.328;86.106;2023-04-25T08:15:20;5.55;;;1.83;;
78799;SDS011;68148;55.328;86.106;2023-04-25T08:17:48;4.35;;;1.08;;
78799;SDS011;68148;55.328;86.106;2023-04-25T08:20:14;8.35;;;3.13;;
78799;SDS011;68148;55.328;86.106;2023-04-25T08:22:39;4.30;;;0.82;;
78799;SDS011;68148;55.328;86.106;2023-04-25T08:25:05;6.85;;;1.33;;
78799;SDS011;68148;55.328;86.106;2023-04-25T08:27:31;5.05;;;0.98;;
78799;SDS011;68148;55.328;86.106;2023-04-25T08:29:57;2.15;;;0.68;;
78799;SDS011;68148;55.328;86.106;2023-04-25T08:32:23;6.60;;;2.08;;
78799;SDS011;68148;55.328;86.106;2023-04-25T08:34:48;5.00;;;1.30;;
78799;SDS011;68148;55.328;86.106;2023-04-25T08:37:14;6.13;;;1.65;;
78799;SDS011;68148;55.328;86.106;2023-04-25T08:39:40;7.72;;;4.32;;
78799;SDS011;68148;55.328;86.106;2023-04-25T08:42:06;5.88;;;2.20;;
78799;SDS011;68148;55.328;86.106;2023-04-25T08:44:33;3.25;;;1.13;;
78799;SDS011;68148;55.328;86.106;2023-04-25T08:46:59;9.18;;;3.30;;
78799;SDS011;68148;55.328;86.106;2023-04-25T08:49:26;4.82;;;1.88;;
78799;SDS011;68148;55.328;86.106;2023-04-25T08:51:53;6.18;;;2.22;;
78799;SDS011;68148;55.328;86.106;2023-04-25T08:54:24;2.70;;;1.10;;
78799;SDS011;68148;55.328;86.106;2023-04-25T08:56:52;0.80;;;0.30;;
78799;SDS011;68148;55.328;86.106;2023-04-25T08:59:18;2.10;;;0.52;;
78799;SDS011;68148;55.328;86.106;2023-04-25T09:01:45;0.55;;;0.20;;
78799;SDS011;68148;55.328;86.106;2023-04-25T09:04:11;0.80;;;0.40;;
78799;SDS011;68148;55.328;86.106;2023-04-25T09:06:37;3.80;;;0.60;;
78799;SDS011;68148;55.328;86.106;2023-04-25T09:09:04;5.88;;;0.63;;
78799;SDS011;68148;55.328;86.106;2023-04-25T09:11:32;0.73;;;0.40;;
78799;SDS011;68148;55.328;86.106;2023-04-25T09:19:29;3.00;;;1.63;;
78799;SDS011;68148;55.328;86.106;2023-04-25T09:21:57;1.00;;;0.43;;
78799;SDS011;68148;55.328;86.106;2023-04-25T09:24:31;0.95;;;0.47;;
78799;SDS011;68148;55.328;86.106;2023-04-25T09:27:05;2.75;;;0.47;;
78799;SDS011;68148;55.328;86.106;2023-04-25T09:29:33;4.68;;;0.52;;
78799;SDS011;68148;55.328;86.106;2023-04-25T09:34:43;0.57;;;0.30;;
78799;SDS011;68148;55.328;86.106;2023-04-25T09:37:10;0.52;;;0.20;;
78799;SDS011;68148;55.328;86.106;2023-04-25T09:39:39;0.95;;;0.22;;
78799;SDS011;68148;55.328;86.106;2023-04-25T09:42:05;1.00;;;0.30;;
78799;SDS011;68148;55.328;86.106;2023-04-25T09:44:31;3.67;;;1.17;;
78799;SDS011;68148;55.328;86.106;2023-04-25T09:46:57;0.25;;;0.25;;
78799;SDS011;68148;55.328;86.106;2023-04-25T09:49:23;5.35;;;1.50;;
78799;SDS011;68148;55.328;86.106;2023-04-25T09:51:57;3.97;;;1.83;;
78799;SDS011;68148;55.328;86.106;2023-04-25T09:54:27;2.28;;;1.30;;
78799;SDS011;68148;55.328;86.106;2023-04-25T09:56:53;1.25;;;0.80;;
78799;SDS011;68148;55.328;86.106;2023-04-25T09:59:20;1.25;;;0.57;;
78799;SDS011;68148;55.328;86.106;2023-04-25T10:01:46;3.83;;;0.80;;
78799;SDS011;68148;55.328;86.106;2023-04-25T10:04:22;13.77;;;3.00;;
78799;SDS011;68148;55.328;86.106;2023-04-25T10:06:50;8.77;;;1.60;;
78799;SDS011;68148;55.328;86.106;2023-04-25T10:09:26;4.75;;;1.90;;
78799;SDS011;68148;55.328;86.106;2023-04-25T10:11:56;5.63;;;2.15;;
78799;SDS011;68148;55.328;86.106;2023-04-25T10:14:23;12.55;;;3.30;;
78799;SDS011;68148;55.328;86.106;2023-04-25T10:16:50;15.73;;;5.25;;
78799;SDS011;68148;55.328;86.106;2023-04-25T10:19:16;7.82;;;2.85;;
78799;SDS011;68148;55.328;86.106;2023-04-25T10:21:54;11.30;;;3.42;;
78799;SDS011;68148;55.328;86.106;2023-04-25T10:24:27;10.48;;;4.60;;
78799;SDS011;68148;55.328;86.106;2023-04-25T10:26:53;5.18;;;1.70;;
78799;SDS011;68148;55.328;86.106;2023-04-25T10:29:23;2.97;;;1.58;;
78799;SDS011;68148;55.328;86.106;2023-04-25T10:31:50;5.00;;;1.15;;
78799;SDS011;68148;55.328;86.106;2023-04-25T10:34:17;6.70;;;1.10;;
78799;SDS011;68148;55.328;86.106;2023-04-25T10:36:48;2.33;;;1.13;;
78799;SDS011;68148;55.328;86.106;2023-04-25T10:39:21;11.82;;;3.28;;
78799;SDS011;68148;55.328;86.106;2023-04-25T10:41:58;6.68;;;2.38;;
78799;SDS011;68148;55.328;86.106;2023-04-25T10:44:27;6.22;;;1.95;;
78799;SDS011;68148;55.328;86.106;2023-04-25T10:46:57;8.68;;;2.22;;
78799;SDS011;68148;55.328;86.106;2023-04-25T10:49:31;14.18;;;3.55;;
78799;SDS011;68148;55.328;86.106;2023-04-25T10:54:58;5.75;;;2.30;;
78799;SDS011;68148;55.328;86.106;2023-04-25T10:57:27;14.05;;;5.20;;
78799;SDS011;68148;55.328;86.106;2023-04-25T11:02:32;7.95;;;2.95;;
78799;SDS011;68148;55.328;86.106;2023-04-25T11:05:02;6.10;;;1.95;;
78799;SDS011;68148;55.328;86.106;2023-04-25T11:10:01;5.97;;;2.10;;
78799;SDS011;68148;55.328;86.106;2023-04-25T11:12:29;5.10;;;1.90;;
78799;SDS011;68148;55.328;86.106;2023-04-25T11:15:13;3.05;;;1.10;;
78799;SDS011;68148;55.328;86.106;2023-04-25T11:17:39;2.20;;;0.50;;
78799;SDS011;68148;55.328;86.106;2023-04-25T11:20:06;4.57;;;1.38;;
78799;SDS011;68148;55.328;86.106;2023-04-25T11:22:32;5.30;;;1.10;;
78799;SDS011;68148;55.328;86.106;2023-04-25T11:25:04;0.73;;;0.40;;
78799;SDS011;68148;55.328;86.106;2023-04-25T11:27:30;0.85;;;0.35;;
78799;SDS011;68148;55.328;86.106;2023-04-25T11:29:56;1.75;;;0.45;;
78799;SDS011;68148;55.328;86.106;2023-04-25T11:32:22;3.03;;;1.17;;
78799;SDS011;68148;55.328;86.106;2023-04-25T11:34:48;1.58;;;0.60;;
78799;SDS011;68148;55.328;86.106;2023-04-25T11:37:14;2.28;;;1.00;;
78799;SDS011;68148;55.328;86.106;2023-04-25T11:39:44;2.55;;;0.85;;
78799;SDS011;68148;55.328;86.106;2023-04-25T11:42:10;8.57;;;1.73;;
78799;SDS011;68148;55.328;86.106;2023-04-25T11:44:37;3.05;;;1.13;;
78799;SDS011;68148;55.328;86.106;2023-04-25T11:47:04;6.25;;;2.13;;
78799;SDS011;68148;55.328;86.106;2023-04-25T11:49:30;13.15;;;3.13;;
78799;SDS011;68148;55.328;86.106;2023-04-25T11:51:56;17.98;;;4.40;;
78799;SDS011;68148;55.328;86.106;2023-04-25T11:54:22;21.25;;;4.15;;
78799;SDS011;68148;55.328;86.106;2023-04-25T11:56:48;12.70;;;4.05;;
78799;SDS011;68148;55.328;86.106;2023-04-25T11:59:14;17.08;;;4.28;;
78799;SDS011;68148;55.328;86.106;2023-04-25T12:01:41;11.25;;;2.85;;
78799;SDS011;68148;55.328;86.106;2023-04-25T12:04:14;13.18;;;2.80;;
78799;SDS011;68148;55.328;86.106;2023-04-25T12:06:42;12.10;;;3.95;;
78799;SDS011;68148;55.328;86.106;2023-04-25T12:09:10;19.65;;;4.25;;
78799;SDS011;68148;55.328;86.106;2023-04-25T12:11:47;10.45;;;4.47;;
78799;SDS011;68148;55.328;86.106;2023-04-25T12:14:21;16.20;;;4.88;;
78799;SDS011;68148;55.328;86.106;2023-04-25T12:16:48;15.02;;;5.18;;
78799;SDS011;68148;55.328;86.106;2023-04-25T12:19:16;23.58;;;4.53;;
78799;SDS011;68148;55.328;86.106;2023-04-25T12:21:43;17.67;;;4.40;;
78799;SDS011;68148;55.328;86.106;2023-04-25T12:24:10;12.25;;;3.95;;
78799;SDS011;68148;55.328;86.106;2023-04-25T12:26:46;8.70;;;2.17;;
78799;SDS011;68148;55.328;86.106;2023-04-25T12:29:15;4.68;;;2.38;;
78799;SDS011;68148;55.328;86.106;2023-04-25T12:31:49;4.22;;;1.30;;
78799;SDS011;68148;55.328;86.106;2023-04-25T12:34:15;18.35;;;4.13;;
78799;SDS011;68148;55.328;86.106;2023-04-25T12:36:41;16.98;;;4.97;;
78799;SDS011;68148;55.328;86.106;2023-04-25T12:39:07;24.80;;;4.40;;
78799;SDS011;68148;55.328;86.106;2023-04-25T12:41:33;14.00;;;5.60;;
78799;SDS011;68148;55.328;86.106;2023-04-25T12:43:59;12.75;;;4.82;;
78799;SDS011;68148;55.328;86.106;2023-04-25T12:46:25;13.30;;;3.83;;
78799;SDS011;68148;55.328;86.106;2023-04-25T12:48:51;10.80;;;3.28;;
78799;SDS011;68148;55.328;86.106;2023-04-25T12:51:19;8.13;;;1.95;;
78799;SDS011;68148;55.328;86.106;2023-04-25T12:53:44;10.70;;;2.05;;
78799;SDS011;68148;55.328;86.106;2023-04-25T12:56:10;2.25;;;1.20;;
78799;SDS011;68148;55.328;86.106;2023-04-25T12:58:36;3.88;;;1.02;;
78799;SDS011;68148;55.328;86.106;2023-04-25T13:01:02;6.65;;;1.95;;
78799;SDS011;68148;55.328;86.106;2023-04-25T13:03:28;12.05;;;1.73;;
78799;SDS011;68148;55.328;86.106;2023-04-25T13:05:54;10.25;;;1.17;;
78799;SDS011;68148;55.328;86.106;2023-04-25T13:08:19;4.13;;;0.98;;
78799;SDS011;68148;55.328;86.106;2023-04-25T13:10:45;3.75;;;0.82;;
78799;SDS011;68148;55.328;86.106;2023-04-25T13:13:13;3.78;;;0.63;;
78799;SDS011;68148;55.328;86.106;2023-04-25T13:15:39;0.75;;;0.47;;
78799;SDS011;68148;55.328;86.106;2023-04-25T13:18:05;1.90;;;0.75;;
78799;SDS011;68148;55.328;86.106;2023-04-25T13:20:31;2.25;;;0.95;;
78799;SDS011;68148;55.328;86.106;2023-04-25T13:22:56;6.75;;;1.33;;
78799;SDS011;68148;55.328;86.106;2023-04-25T13:25:22;8.70;;;1.30;;
78799;SDS011;68148;55.328;86.106;2023-04-25T13:27:48;11.93;;;1.58;;
78799;SDS011;68148;55.328;86.106;2023-04-25T13:30:14;9.63;;;1.80;;
78799;SDS011;68148;55.328;86.106;2023-04-25T13:32:40;11.30;;;2.50;;
78799;SDS011;68148;55.328;86.106;2023-04-25T13:35:09;22.48;;;2.90;;
78799;SDS011;68148;55.328;86.106;2023-04-25T13:37:39;14.35;;;5.18;;
78799;SDS011;68148;55.328;86.106;2023-04-25T13:40:09;26.35;;;5.68;;
78799;SDS011;68148;55.328;86.106;2023-04-25T13:42:39;30.50;;;8.10;;
78799;SDS011;68148;55.328;86.106;2023-04-25T13:45:05;28.00;;;7.95;;
78799;SDS011;68148;55.328;86.106;2023-04-25T13:47:31;20.85;;;5.40;;
78799;SDS011;68148;55.328;86.106;2023-04-25T13:49:57;19.83;;;6.40;;
78799;SDS011;68148;55.328;86.106;2023-04-25T13:52:23;21.05;;;4.60;;
78799;SDS011;68148;55.328;86.106;2023-04-25T13:54:49;15.98;;;4.55;;
78799;SDS011;68148;55.328;86.106;2023-04-25T13:57:16;20.85;;;3.72;;
78799;SDS011;68148;55.328;86.106;2023-04-25T13:59:43;17.75;;;3.42;;
78799;SDS011;68148;55.328;86.106;2023-04-25T14:02:09;22.00;;;4.07;;
78799;SDS011;68148;55.328;86.106;2023-04-25T14:04:34;25.02;;;4.47;;
78799;SDS011;68148;55.328;86.106;2023-04-25T14:07:00;15.98;;;3.75;;
78799;SDS011;68148;55.328;86.106;2023-04-25T14:09:27;15.20;;;4.10;;
78799;SDS011;68148;55.328;86.106;2023-04-25T14:11:53;19.48;;;4.70;;
78799;SDS011;68148;55.328;86.106;2023-04-25T14:14:20;16.42;;;4.85;;
78799;SDS011;68148;55.328;86.106;2023-04-25T14:16:47;18.83;;;4.75;;
78799;SDS011;68148;55.328;86.106;2023-04-25T14:19:13;18.42;;;4.88;;
78799;SDS011;68148;55.328;86.106;2023-04-25T14:21:40;22.42;;;4.50;;
78799;SDS011;68148;55.328;86.106;2023-04-25T14:24:06;10.98;;;3.58;;
78799;SDS011;68148;55.328;86.106;2023-04-25T14:26:34;40.38;;;4.93;;
78799;SDS011;68148;55.328;86.106;2023-04-25T14:29:00;7.32;;;2.58;;
78799;SDS011;68148;55.328;86.106;2023-04-25T14:31:25;12.13;;;3.10;;
78799;SDS011;68148;55.328;86.106;2023-04-25T14:33:51;15.30;;;3.85;;
78799;SDS011;68148;55.328;86.106;2023-04-25T14:36:17;9.70;;;2.45;;
78799;SDS011;68148;55.328;86.106;2023-04-25T14:38:43;15.10;;;3.08;;
78799;SDS011;68148;55.328;86.106;2023-04-25T14:41:11;20.00;;;3.53;;
78799;SDS011;68148;55.328;86.106;2023-04-25T14:43:37;8.32;;;2.75;;
78799;SDS011;68148;55.328;86.106;2023-04-25T14:46:03;9.23;;;3.53;;